Time;durP1;ratioP1;P1;durP2;ratioP2;P2;SDS_P1;SDS_P2;PMS_P1;PMS_P2;Temp;Humidity;BMP_temperature;BMP_pressure;BME280_temperature;BME280_humidity;BME280_pressure;Samples;Min_cycle;Max_cycle;Signal;HPM_P1;HPM_P2
2021/12/22 00:02:04;;;;;;;38.15;24.40;;;;;;;;;;6191214;23;20374;-78
2021/12/22 00:04:32;;;;;;;43.00;26.35;;;;;;;;;;6194486;23;20391;-78
2021/12/22 00:06:58;;;;;;;40.03;25.67;;;;;;;;;;6191962;23;20402;-77
2021/12/22 00:09:24;;;;;;;44.03;26.25;;;;;;;;;;6167747;23;20372;-78
2021/12/22 00:11:51;;;;;;;39.88;25.92;;;;;;;;;;6169367;23;20368;-78
2021/12/22 00:14:17;;;;;;;40.50;25.27;;;;;;;;;;6168007;23;20372;-78
2021/12/22 00:16:43;;;;;;;37.85;24.02;;;;;;;;;;6194102;23;20367;-77
2021/12/22 00:19:10;;;;;;;40.10;24.88;;;;;;;;;;6192763;23;20394;-78
2021/12/22 00:21:36;;;;;;;41.40;26.08;;;;;;;;;;6168504;23;20372;-78
2021/12/22 00:24:02;;;;;;;37.60;24.80;;;;;;;;;;6192752;23;20371;-77
2021/12/22 00:26:28;;;;;;;42.67;25.88;;;;;;;;;;6168449;23;20398;-78
2021/12/22 00:28:54;;;;;;;42.22;26.50;;;;;;;;;;6143184;23;20702;-78
2021/12/22 00:31:22;;;;;;;41.28;26.65;;;;;;;;;;6167313;23;20410;-79
2021/12/22 00:33:50;;;;;;;40.55;26.65;;;;;;;;;;6143983;23;20470;-78
2021/12/22 00:36:18;;;;;;;43.05;26.65;;;;;;;;;;6167003;23;20367;-78
2021/12/22 00:38:44;;;;;;;42.22;26.58;;;;;;;;;;6193505;23;20391;-78
2021/12/22 00:41:10;;;;;;;40.17;27.27;;;;;;;;;;6191215;23;20468;-78
2021/12/22 00:43:36;;;;;;;43.15;28.25;;;;;;;;;;6192918;23;20826;-79
2021/12/22 00:46:03;;;;;;;46.28;28.85;;;;;;;;;;6143231;23;20434;-78
2021/12/22 00:48:29;;;;;;;50.05;29.23;;;;;;;;;;6192562;23;20368;-78
2021/12/22 00:50:55;;;;;;;41.30;27.67;;;;;;;;;;6191867;23;20365;-78
2021/12/22 00:53:21;;;;;;;45.60;28.13;;;;;;;;;;6190722;23;20685;-78
2021/12/22 00:55:48;;;;;;;47.40;29.60;;;;;;;;;;6169001;23;20451;-79
2021/12/22 00:58:14;;;;;;;46.95;28.67;;;;;;;;;;6191704;23;20574;-78
2021/12/22 01:00:41;;;;;;;49.20;29.60;;;;;;;;;;6192011;23;20423;-78
2021/12/22 01:03:07;;;;;;;46.47;29.13;;;;;;;;;;6167732;23;20388;-77
2021/12/22 01:05:33;;;;;;;50.90;29.02;;;;;;;;;;6167181;23;20368;-78
2021/12/22 01:07:59;;;;;;;47.90;28.63;;;;;;;;;;6168794;23;20391;-77
2021/12/22 01:10:26;;;;;;;49.33;29.30;;;;;;;;;;6164906;23;20371;-78
2021/12/22 01:12:55;;;;;;;47.77;29.93;;;;;;;;;;6193848;23;20679;-78
2021/12/22 01:15:21;;;;;;;53.10;29.98;;;;;;;;;;6191880;23;20357;-78
2021/12/22 01:17:50;;;;;;;51.30;28.90;;;;;;;;;;6168158;23;20923;-78
2021/12/22 01:20:31;;;;;;;49.72;30.05;;;;;;;;;;6191257;23;20378;-78
2021/12/22 01:23:05;;;;;;;64.82;34.58;;;;;;;;;;6169871;23;20717;-78
2021/12/22 01:25:38;;;;;;;52.05;30.17;;;;;;;;;;6168414;23;20367;-78
2021/12/22 01:28:05;;;;;;;44.92;28.58;;;;;;;;;;6166315;23;20422;-78
2021/12/22 01:30:32;;;;;;;50.55;27.98;;;;;;;;;;6167392;23;20564;-78
2021/12/22 01:32:59;;;;;;;55.67;29.45;;;;;;;;;;6167757;23;20438;-78
2021/12/22 01:35:27;;;;;;;90.32;33.08;;;;;;;;;;6192227;23;20426;-78
2021/12/22 01:37:54;;;;;;;50.13;28.25;;;;;;;;;;6166834;23;20761;-78
2021/12/22 01:40:20;;;;;;;47.57;27.90;;;;;;;;;;6166697;23;20376;-78
2021/12/22 01:42:47;;;;;;;49.70;30.48;;;;;;;;;;6193302;23;20372;-79
2021/12/22 01:50:41;;;;;;;41.85;26.10;;;;;;;;;;6192982;23;25075;-78
2021/12/22 01:53:10;;;;;;;38.63;25.17;;;;;;;;;;6191404;23;20383;-79
2021/12/22 01:55:38;;;;;;;41.07;26.40;;;;;;;;;;6193552;23;20374;-78
2021/12/22 01:58:06;;;;;;;43.80;27.77;;;;;;;;;;6190371;23;20380;-78
2021/12/22 02:00:33;;;;;;;46.80;28.02;;;;;;;;;;6167573;23;20368;-78
2021/12/22 02:02:59;;;;;;;42.60;26.65;;;;;;;;;;6167245;23;20371;-78
2021/12/22 02:05:25;;;;;;;41.55;26.30;;;;;;;;;;6192159;23;20372;-79
2021/12/22 02:07:56;;;;;;;39.50;25.70;;;;;;;;;;6192194;23;20364;-79
2021/12/22 02:12:52;;;;;;;44.08;27.15;;;;;;;;;;6193755;23;20382;-78
2021/12/22 02:15:18;;;;;;;39.05;25.35;;;;;;;;;;6198817;23;20388;-78
2021/12/22 02:17:44;;;;;;;38.93;25.33;;;;;;;;;;6202685;23;20370;-78
2021/12/22 02:20:11;;;;;;;41.47;26.40;;;;;;;;;;6197607;23;20687;-78
2021/12/22 02:22:40;;;;;;;39.63;25.98;;;;;;;;;;6172860;23;20390;-78
2021/12/22 02:25:13;;;;;;;40.20;24.52;;;;;;;;;;6197340;23;20416;-78
2021/12/22 02:27:47;;;;;;;44.25;26.88;;;;;;;;;;6169628;23;20451;-78
2021/12/22 02:30:18;;;;;;;42.28;27.00;;;;;;;;;;6169712;23;20403;-78
2021/12/22 02:35:53;;;;;;;46.17;28.27;;;;;;;;;;5092794;28;20521;-72
2021/12/22 02:38:19;;;;;;;46.10;29.00;;;;;;;;;;5077279;28;20427;-72
2021/12/22 02:40:47;;;;;;;44.70;28.30;;;;;;;;;;5091751;28;20416;-73
2021/12/22 02:43:19;;;;;;;42.42;27.02;;;;;;;;;;5102787;28;20417;-73
2021/12/22 02:45:46;;;;;;;43.70;27.50;;;;;;;;;;5078474;28;20413;-73
2021/12/22 02:48:12;;;;;;;44.72;27.92;;;;;;;;;;5085903;28;20983;-72
2021/12/22 02:50:40;;;;;;;44.13;27.73;;;;;;;;;;5079023;28;20414;-73
2021/12/22 02:53:10;;;;;;;49.97;28.65;;;;;;;;;;5096032;28;20441;-73
2021/12/22 02:55:56;;;;;;;48.40;29.38;;;;;;;;;;5074512;28;20503;-73
2021/12/22 03:06:12;;;;;;;46.75;28.38;;;;;;;;;;5094642;28;20424;-73
2021/12/22 03:08:38;;;;;;;45.75;27.60;;;;;;;;;;5101148;28;20417;-74
2021/12/22 03:11:04;;;;;;;46.50;28.30;;;;;;;;;;5096029;28;20436;-73
2021/12/22 03:13:31;;;;;;;43.05;27.40;;;;;;;;;;5081337;28;20735;-73
2021/12/22 03:15:57;;;;;;;52.05;28.15;;;;;;;;;;5070027;28;20409;-73
2021/12/22 03:18:24;;;;;;;72.07;29.90;;;;;;;;;;5093549;28;20898;-74
2021/12/22 03:20:58;;;;;;;47.92;27.73;;;;;;;;;;5075576;28;21009;-73
2021/12/22 03:23:25;;;;;;;45.47;26.92;;;;;;;;;;5085399;28;25114;-73
2021/12/22 03:25:52;;;;;;;42.00;26.63;;;;;;;;;;5073836;28;20856;-74
2021/12/22 03:28:18;;;;;;;44.28;26.55;;;;;;;;;;5092376;28;20925;-73
2021/12/22 03:30:44;;;;;;;44.55;27.33;;;;;;;;;;5081845;28;20416;-73
2021/12/22 03:33:11;;;;;;;45.43;26.10;;;;;;;;;;5114291;27;20441;-73
2021/12/22 03:35:38;;;;;;;45.15;26.52;;;;;;;;;;5102075;28;20894;-72
2021/12/22 03:38:05;;;;;;;43.00;27.00;;;;;;;;;;5101222;28;20411;-73
2021/12/22 03:40:31;;;;;;;43.00;25.80;;;;;;;;;;5093069;28;20404;-72
2021/12/22 03:42:58;;;;;;;40.75;25.83;;;;;;;;;;5097582;28;20449;-72
2021/12/22 03:45:24;;;;;;;43.63;27.27;;;;;;;;;;5075910;28;20428;-72
2021/12/22 03:47:51;;;;;;;44.97;25.95;;;;;;;;;;5085233;28;20412;-73
2021/12/22 03:50:17;;;;;;;41.22;25.83;;;;;;;;;;5101637;28;20422;-73
2021/12/22 03:52:43;;;;;;;41.97;25.80;;;;;;;;;;5103679;28;20413;-73
2021/12/22 03:55:10;;;;;;;39.85;26.35;;;;;;;;;;5106189;28;20430;-73
2021/12/22 03:57:36;;;;;;;46.72;27.35;;;;;;;;;;5103861;28;20935;-74
2021/12/22 04:00:04;;;;;;;40.77;25.33;;;;;;;;;;5072619;28;20787;-74
2021/12/22 04:02:30;;;;;;;44.53;25.92;;;;;;;;;;5098405;28;20432;-74
2021/12/22 04:04:56;;;;;;;41.50;25.97;;;;;;;;;;5086125;28;20412;-74
2021/12/22 04:07:22;;;;;;;42.75;25.33;;;;;;;;;;5093043;28;20424;-73
2021/12/22 04:09:48;;;;;;;41.25;25.13;;;;;;;;;;5095114;28;20510;-73
2021/12/22 04:12:14;;;;;;;39.87;25.87;;;;;;;;;;5087455;28;20780;-74
2021/12/22 04:14:41;;;;;;;40.20;24.30;;;;;;;;;;5091357;28;20422;-74
2021/12/22 04:17:07;;;;;;;43.37;25.03;;;;;;;;;;5090211;28;20744;-74
2021/12/22 04:19:33;;;;;;;41.20;25.83;;;;;;;;;;5101281;28;20416;-74
2021/12/22 04:21:59;;;;;;;43.23;24.87;;;;;;;;;;5107358;28;20412;-74
2021/12/22 04:24:25;;;;;;;38.78;25.05;;;;;;;;;;5081999;28;20425;-74
2021/12/22 04:26:51;;;;;;;40.88;24.77;;;;;;;;;;5090041;28;20413;-74
2021/12/22 04:29:18;;;;;;;48.97;25.02;;;;;;;;;;5096474;28;20495;-74
2021/12/22 04:31:44;;;;;;;192.65;38.55;;;;;;;;;;5100059;28;20426;-73
2021/12/22 04:34:10;;;;;;;39.88;24.35;;;;;;;;;;5097724;28;20394;-73
2021/12/22 04:36:37;;;;;;;44.72;25.27;;;;;;;;;;5092728;28;20428;-74
2021/12/22 04:39:04;;;;;;;40.93;24.17;;;;;;;;;;5071288;28;20496;-73
2021/12/22 04:41:30;;;;;;;44.40;25.88;;;;;;;;;;5086138;28;20416;-74
2021/12/22 04:43:56;;;;;;;43.17;25.13;;;;;;;;;;5107466;28;20416;-73
2021/12/22 04:46:22;;;;;;;43.38;25.60;;;;;;;;;;5072705;28;20419;-73
2021/12/22 04:48:48;;;;;;;41.60;25.88;;;;;;;;;;5074194;28;20434;-73
2021/12/22 04:51:24;;;;;;;42.70;26.08;;;;;;;;;;5106613;28;20486;-72
2021/12/22 04:56:28;;;;;;;40.55;24.63;;;;;;;;;;5093991;28;25116;-73
2021/12/22 04:58:54;;;;;;;38.53;24.45;;;;;;;;;;5075994;28;20419;-72
2021/12/22 05:01:20;;;;;;;40.47;25.20;;;;;;;;;;5101443;28;21073;-72
2021/12/22 05:03:46;;;;;;;39.10;24.15;;;;;;;;;;5102938;28;20768;-72
2021/12/22 05:06:12;;;;;;;40.67;24.58;;;;;;;;;;5107132;28;20458;-71
2021/12/22 05:08:38;;;;;;;39.20;24.05;;;;;;;;;;5070557;28;20899;-73
2021/12/22 05:11:05;;;;;;;37.35;23.90;;;;;;;;;;5091100;28;20422;-73
2021/12/22 05:13:33;;;;;;;37.95;25.08;;;;;;;;;;5098100;28;20419;-72
2021/12/22 05:15:59;;;;;;;38.67;23.05;;;;;;;;;;5100780;28;20491;-73
2021/12/22 05:18:48;;;;;;;36.63;23.93;;;;;;;;;;5090187;28;20426;-73
2021/12/22 05:21:11;;;;;;;39.30;23.10;;;;;;;;;;5105224;28;20455;-73
2021/12/22 05:23:37;;;;;;;42.13;24.27;;;;;;;;;;5105243;28;20455;-73
2021/12/22 05:26:03;;;;;;;106.93;29.38;;;;;;;;;;5105934;28;20467;-73
2021/12/22 05:28:29;;;;;;;39.27;23.03;;;;;;;;;;5090284;28;20425;-73
2021/12/22 05:30:56;;;;;;;36.08;21.90;;;;;;;;;;5093232;28;20431;-74
2021/12/22 05:33:22;;;;;;;38.40;23.43;;;;;;;;;;5074741;28;20481;-73
2021/12/22 05:35:48;;;;;;;43.80;24.52;;;;;;;;;;5095953;28;20776;-72
2021/12/22 05:38:14;;;;;;;42.87;24.23;;;;;;;;;;5081231;28;20497;-73
2021/12/22 05:40:40;;;;;;;39.28;24.27;;;;;;;;;;5099825;28;20408;-74
2021/12/22 05:43:06;;;;;;;36.90;23.38;;;;;;;;;;5094274;28;20423;-74
2021/12/22 05:45:32;;;;;;;38.33;22.77;;;;;;;;;;5105697;28;20555;-74
2021/12/22 05:47:58;;;;;;;39.20;23.83;;;;;;;;;;5099483;28;20903;-73
2021/12/22 05:50:25;;;;;;;38.40;23.83;;;;;;;;;;5096107;28;20553;-73
2021/12/22 05:52:51;;;;;;;37.55;23.55;;;;;;;;;;5107412;28;20419;-73
2021/12/22 05:55:17;;;;;;;38.38;23.40;;;;;;;;;;5079650;28;20506;-74
2021/12/22 05:57:43;;;;;;;83.60;27.17;;;;;;;;;;5100132;28;21002;-73
2021/12/22 06:00:10;;;;;;;100.90;29.40;;;;;;;;;;5083063;28;20461;-73
2021/12/22 06:02:36;;;;;;;43.30;24.45;;;;;;;;;;5076696;28;20431;-73
2021/12/22 06:05:02;;;;;;;66.38;24.75;;;;;;;;;;5092553;28;20803;-74
2021/12/22 06:07:28;;;;;;;41.45;23.63;;;;;;;;;;5105588;27;20506;-73
2021/12/22 06:09:54;;;;;;;38.90;23.42;;;;;;;;;;5102493;28;20412;-73
2021/12/22 06:12:20;;;;;;;37.35;22.52;;;;;;;;;;5074486;28;20505;-74
2021/12/22 06:14:46;;;;;;;38.73;23.40;;;;;;;;;;5104165;28;20547;-73
2021/12/22 06:17:13;;;;;;;51.90;24.83;;;;;;;;;;5107274;28;20809;-73
2021/12/22 06:19:39;;;;;;;76.45;26.63;;;;;;;;;;5087101;28;20997;-73
2021/12/22 06:22:05;;;;;;;38.88;23.83;;;;;;;;;;5092237;28;20423;-73
2021/12/22 06:24:31;;;;;;;87.47;31.20;;;;;;;;;;5097189;28;20431;-73
2021/12/22 06:26:58;;;;;;;123.38;32.10;;;;;;;;;;5079565;28;20506;-73
2021/12/22 06:29:24;;;;;;;40.28;23.98;;;;;;;;;;5091403;28;20775;-73
2021/12/22 06:31:51;;;;;;;41.10;23.15;;;;;;;;;;5103792;28;20420;-73
2021/12/22 06:34:17;;;;;;;38.97;23.60;;;;;;;;;;5107006;28;20923;-73
2021/12/22 06:36:43;;;;;;;192.48;38.00;;;;;;;;;;5084166;28;20416;-73
2021/12/22 06:39:09;;;;;;;95.32;29.40;;;;;;;;;;5093386;28;20417;-73
2021/12/22 06:41:36;;;;;;;495.63;65.90;;;;;;;;;;5086213;28;20915;-74
2021/12/22 06:44:02;;;;;;;43.03;24.90;;;;;;;;;;5085262;28;20758;-74
2021/12/22 06:46:28;;;;;;;101.88;29.50;;;;;;;;;;5099090;28;20491;-73
2021/12/22 06:48:54;;;;;;;46.35;24.40;;;;;;;;;;5092431;28;20418;-73
2021/12/22 06:51:21;;;;;;;45.88;24.52;;;;;;;;;;5074762;28;20926;-72
2021/12/22 06:53:50;;;;;;;38.47;23.17;;;;;;;;;;5097539;28;20404;-75
2021/12/22 06:56:16;;;;;;;44.27;23.90;;;;;;;;;;5094570;28;21084;-76
2021/12/22 06:58:42;;;;;;;83.97;27.45;;;;;;;;;;5075251;28;20432;-73
2021/12/22 07:01:08;;;;;;;36.38;22.60;;;;;;;;;;5097533;28;20420;-73
2021/12/22 07:03:34;;;;;;;43.63;23.25;;;;;;;;;;5076571;28;20429;-73
2021/12/22 07:06:01;;;;;;;39.55;22.90;;;;;;;;;;5080375;28;20416;-73
2021/12/22 07:08:28;;;;;;;50.42;24.15;;;;;;;;;;5084437;28;20415;-75
2021/12/22 07:10:54;;;;;;;42.30;24.42;;;;;;;;;;5083876;28;20418;-74
2021/12/22 07:13:20;;;;;;;42.28;22.55;;;;;;;;;;5073329;28;20432;-74
2021/12/22 07:15:47;;;;;;;37.53;22.73;;;;;;;;;;5083044;28;20406;-72
2021/12/22 07:18:13;;;;;;;87.55;27.13;;;;;;;;;;5099531;28;20941;-74
2021/12/22 07:20:40;;;;;;;41.50;22.83;;;;;;;;;;5106339;28;20560;-74
2021/12/22 07:23:06;;;;;;;41.70;23.23;;;;;;;;;;5102269;28;20421;-74
2021/12/22 07:25:32;;;;;;;37.53;21.73;;;;;;;;;;5100527;28;20921;-74
2021/12/22 07:27:58;;;;;;;39.37;23.07;;;;;;;;;;5096268;28;20505;-74
2021/12/22 07:30:24;;;;;;;49.80;24.85;;;;;;;;;;5109080;28;20419;-74
2021/12/22 07:32:51;;;;;;;302.75;41.40;;;;;;;;;;5086743;28;20427;-74
2021/12/22 07:35:20;;;;;;;36.33;22.13;;;;;;;;;;5091118;28;20417;-74
2021/12/22 07:38:24;;;;;;;37.80;22.58;;;;;;;;;;5098428;28;21002;-74
2021/12/22 07:40:52;;;;;;;60.58;23.73;;;;;;;;;;5030295;28;20519;-74
2021/12/22 07:43:18;;;;;;;36.97;21.67;;;;;;;;;;5100173;27;20431;-74
2021/12/22 07:45:48;;;;;;;38.78;22.75;;;;;;;;;;5105435;28;20420;-74
2021/12/22 07:48:15;;;;;;;38.75;21.73;;;;;;;;;;5089842;28;20498;-74
2021/12/22 07:50:41;;;;;;;39.05;22.17;;;;;;;;;;5103028;28;20421;-74
2021/12/22 07:53:07;;;;;;;44.10;22.60;;;;;;;;;;5106171;28;20455;-73
2021/12/22 07:55:33;;;;;;;124.22;28.95;;;;;;;;;;5103290;28;20543;-73
2021/12/22 07:57:59;;;;;;;35.03;21.20;;;;;;;;;;5101223;28;20946;-72
2021/12/22 08:00:25;;;;;;;33.63;20.98;;;;;;;;;;5085738;28;20449;-73
2021/12/22 08:02:51;;;;;;;37.10;21.33;;;;;;;;;;5083170;28;20895;-74
2021/12/22 08:05:17;;;;;;;38.85;21.52;;;;;;;;;;5074924;28;20416;-73
2021/12/22 08:07:43;;;;;;;35.70;22.08;;;;;;;;;;5104469;28;20409;-73
2021/12/22 08:10:10;;;;;;;34.70;21.83;;;;;;;;;;5092115;28;20414;-73
2021/12/22 08:12:36;;;;;;;34.60;21.10;;;;;;;;;;5086317;28;20445;-73
2021/12/22 08:15:02;;;;;;;35.80;21.65;;;;;;;;;;5104304;28;20794;-73
2021/12/22 08:17:30;;;;;;;33.65;21.00;;;;;;;;;;5087257;28;20428;-73
2021/12/22 08:19:57;;;;;;;34.15;20.23;;;;;;;;;;5102709;28;20789;-74
2021/12/22 08:22:23;;;;;;;30.90;20.65;;;;;;;;;;5074190;28;20417;-73
2021/12/22 08:24:50;;;;;;;34.23;20.83;;;;;;;;;;5089463;28;20488;-74
2021/12/22 08:27:17;;;;;;;31.80;19.97;;;;;;;;;;5097127;28;20473;-74
2021/12/22 08:29:44;;;;;;;34.00;20.90;;;;;;;;;;5102618;28;20644;-73
2021/12/22 08:32:13;;;;;;;87.78;25.58;;;;;;;;;;5066144;28;20991;-74
2021/12/22 08:34:41;;;;;;;31.98;20.17;;;;;;;;;;5064039;28;20875;-74
2021/12/22 08:39:53;;;;;;;59.45;22.85;;;;;;;;;;5082607;28;20525;-74
2021/12/22 08:42:20;;;;;;;33.60;20.73;;;;;;;;;;5082206;28;20406;-74
2021/12/22 08:44:46;;;;;;;34.08;20.80;;;;;;;;;;5084663;28;20425;-74
2021/12/22 08:47:12;;;;;;;36.17;20.85;;;;;;;;;;5085879;28;20438;-74
2021/12/22 08:49:39;;;;;;;35.72;21.00;;;;;;;;;;5085122;28;20494;-75
2021/12/22 08:52:05;;;;;;;105.13;26.70;;;;;;;;;;5082754;28;20426;-74
2021/12/22 08:54:31;;;;;;;40.30;21.85;;;;;;;;;;5081812;28;20459;-74
2021/12/22 08:56:57;;;;;;;36.97;21.25;;;;;;;;;;5080588;28;20832;-73
2021/12/22 08:59:24;;;;;;;34.40;20.20;;;;;;;;;;5083358;28;20816;-75
2021/12/22 09:01:51;;;;;;;33.88;20.15;;;;;;;;;;5082182;28;20432;-76
2021/12/22 09:04:19;;;;;;;34.78;21.05;;;;;;;;;;5085198;28;20431;-76
2021/12/22 09:06:46;;;;;;;35.95;21.20;;;;;;;;;;5086463;28;20452;-75
2021/12/22 09:09:12;;;;;;;38.55;21.33;;;;;;;;;;5084915;28;22012;-75
2021/12/22 09:11:39;;;;;;;36.47;21.17;;;;;;;;;;5085757;28;20504;-76
2021/12/22 09:14:06;;;;;;;55.22;24.00;;;;;;;;;;5083365;28;20409;-75
2021/12/22 09:16:36;;;;;;;37.75;21.98;;;;;;;;;;5083140;28;20420;-76
2021/12/22 09:19:03;;;;;;;36.03;21.23;;;;;;;;;;5075191;28;21720;-75
2021/12/22 09:21:30;;;;;;;41.40;22.08;;;;;;;;;;5079842;28;20776;-75
2021/12/22 09:23:56;;;;;;;36.33;20.98;;;;;;;;;;5075943;28;20449;-75
2021/12/22 09:26:22;;;;;;;60.97;24.48;;;;;;;;;;5076244;28;20477;-74
2021/12/22 09:28:48;;;;;;;38.08;24.17;;;;;;;;;;5080898;28;20452;-75
2021/12/22 09:31:14;;;;;;;96.10;30.30;;;;;;;;;;5079173;28;21025;-76
2021/12/22 09:33:41;;;;;;;45.47;26.10;;;;;;;;;;5081552;28;20423;-73
2021/12/22 09:36:08;;;;;;;44.08;22.63;;;;;;;;;;5060933;28;21226;-75
2021/12/22 09:38:35;;;;;;;36.92;21.80;;;;;;;;;;5078342;28;20459;-74
2021/12/22 09:41:01;;;;;;;37.05;21.08;;;;;;;;;;5081809;28;20422;-74
2021/12/22 09:43:28;;;;;;;44.65;21.52;;;;;;;;;;5062663;28;20446;-75
2021/12/22 09:45:59;;;;;;;32.88;19.80;;;;;;;;;;5077641;28;20414;-75
2021/12/22 09:53:36;;;;;;;33.92;20.00;;;;;;;;;;5089933;27;20424;-74
2021/12/22 09:56:02;;;;;;;33.90;20.40;;;;;;;;;;5072102;28;20541;-75
2021/12/22 09:58:28;;;;;;;33.03;19.38;;;;;;;;;;5052802;28;20420;-75
2021/12/22 10:00:54;;;;;;;35.15;20.30;;;;;;;;;;5072587;28;20445;-75
2021/12/22 10:03:21;;;;;;;38.20;21.47;;;;;;;;;;5050443;28;21036;-75
2021/12/22 10:05:48;;;;;;;32.95;19.15;;;;;;;;;;5069417;28;20422;-75
2021/12/22 10:08:15;;;;;;;33.65;19.92;;;;;;;;;;5077147;28;20402;-75
2021/12/22 10:10:46;;;;;;;33.53;18.93;;;;;;;;;;5077409;28;20450;-74
2021/12/22 10:13:14;;;;;;;32.65;19.27;;;;;;;;;;5063748;28;20417;-73
2021/12/22 10:15:40;;;;;;;29.93;18.67;;;;;;;;;;5084368;28;20474;-75
2021/12/22 10:18:08;;;;;;;32.20;19.65;;;;;;;;;;5081737;28;20927;-75
2021/12/22 10:20:34;;;;;;;33.42;19.58;;;;;;;;;;5082088;28;20421;-75
2021/12/22 10:23:00;;;;;;;86.07;23.90;;;;;;;;;;5080187;28;20427;-75
2021/12/22 10:25:29;;;;;;;54.33;19.92;;;;;;;;;;5074017;28;20421;-75
2021/12/22 10:27:58;;;;;;;34.23;19.47;;;;;;;;;;5051460;28;20968;-74
2021/12/22 10:30:26;;;;;;;31.10;19.80;;;;;;;;;;5081826;28;20467;-74
2021/12/22 10:33:04;;;;;;;31.65;18.45;;;;;;;;;;5081623;28;20963;-74
2021/12/22 10:35:32;;;;;;;31.90;20.02;;;;;;;;;;5077067;28;20412;-73
2021/12/22 10:37:59;;;;;;;29.45;17.98;;;;;;;;;;5083384;28;20410;-73
2021/12/22 10:40:33;;;;;;;30.52;17.75;;;;;;;;;;5080974;28;20429;-75
2021/12/22 10:43:00;;;;;;;36.03;18.73;;;;;;;;;;5081865;28;20457;-74
2021/12/22 10:45:27;;;;;;;35.45;20.15;;;;;;;;;;5082336;28;20471;-74
2021/12/22 10:50:43;;;;;;;31.55;18.77;;;;;;;;;;5081199;28;20409;-74
2021/12/22 10:53:10;;;;;;;31.17;18.23;;;;;;;;;;5067854;28;20436;-74
2021/12/22 10:55:41;;;;;;;29.38;18.77;;;;;;;;;;5085848;28;20434;-74
2021/12/22 10:58:19;;;;;;;29.95;17.60;;;;;;;;;;5083768;28;22432;-74
2021/12/22 11:00:58;;;;;;;29.30;17.30;;;;;;;;;;5086829;28;20521;-74
2021/12/22 11:03:32;;;;;;;27.58;16.98;;;;;;;;;;5071042;28;20409;-74
2021/12/22 11:06:01;;;;;;;27.50;17.90;;;;;;;;;;5082611;28;20453;-76
2021/12/22 11:08:27;;;;;;;28.20;17.05;;;;;;;;;;5078273;28;20461;-76
2021/12/22 11:10:54;;;;;;;28.17;17.13;;;;;;;;;;5076816;28;20758;-75
2021/12/22 11:13:21;;;;;;;44.28;19.35;;;;;;;;;;5081461;28;20419;-74
2021/12/22 11:15:48;;;;;;;29.00;17.13;;;;;;;;;;5078981;28;20462;-74
2021/12/22 11:18:29;;;;;;;31.52;20.15;;;;;;;;;;5107251;28;20915;-74
2021/12/22 11:21:34;;;;;;;27.23;17.13;;;;;;;;;;5081034;28;20450;-74
2021/12/22 11:24:00;;;;;;;52.30;20.27;;;;;;;;;;5071120;28;20424;-75
2021/12/22 11:26:26;;;;;;;28.38;17.20;;;;;;;;;;5070000;28;20416;-74
2021/12/22 11:28:52;;;;;;;28.92;17.42;;;;;;;;;;5081203;28;20421;-74
2021/12/22 11:31:18;;;;;;;25.10;16.02;;;;;;;;;;5082743;28;20422;-74
2021/12/22 11:33:45;;;;;;;28.47;17.67;;;;;;;;;;5087486;28;20540;-73
2021/12/22 11:36:12;;;;;;;32.33;18.73;;;;;;;;;;5068271;28;20413;-74
2021/12/22 11:38:38;;;;;;;34.90;19.13;;;;;;;;;;5084868;28;20446;-73
2021/12/22 11:41:17;;;;;;;28.58;17.60;;;;;;;;;;5066915;28;20425;-74
2021/12/22 11:43:43;;;;;;;28.75;17.02;;;;;;;;;;5060450;28;20424;-74
2021/12/22 11:46:10;;;;;;;27.30;17.05;;;;;;;;;;5088359;28;20741;-73
2021/12/22 11:48:37;;;;;;;26.65;16.92;;;;;;;;;;5085541;28;20406;-71
2021/12/22 11:51:21;;;;;;;27.58;17.33;;;;;;;;;;5099395;28;20453;-73
2021/12/22 11:53:57;;;;;;;30.52;16.92;;;;;;;;;;5107520;28;20927;-73
2021/12/22 11:56:42;;;;;;;29.52;18.23;;;;;;;;;;5102330;28;20416;-73
2021/12/22 11:59:24;;;;;;;27.03;16.77;;;;;;;;;;5065933;28;20420;-73
2021/12/22 12:02:09;;;;;;;26.58;16.75;;;;;;;;;;5085502;28;20485;-75
2021/12/22 12:04:35;;;;;;;27.63;17.02;;;;;;;;;;5100636;28;20440;-73
2021/12/22 12:07:01;;;;;;;26.00;17.27;;;;;;;;;;5107596;28;20413;-73
2021/12/22 12:09:30;;;;;;;24.65;16.58;;;;;;;;;;5091202;28;20435;-73
2021/12/22 12:11:57;;;;;;;27.67;16.50;;;;;;;;;;5079507;28;20933;-73
2021/12/22 12:15:05;;;;;;;26.55;16.38;;;;;;;;;;5105937;28;20426;-74
2021/12/22 12:23:28;;;;;;;25.67;16.20;;;-0.10;99.90;;;;;;5081947;28;20415;-74
2021/12/22 12:25:55;;;;;;;24.38;16.45;;;;;;;;;;5075388;28;20418;-73
2021/12/22 12:28:21;;;;;;;23.95;16.48;;;;;;;;;;5095176;28;20518;-72
2021/12/22 12:30:48;;;;;;;42.97;18.85;;;;;;;;;;5087589;28;20440;-74
2021/12/22 12:33:26;;;;;;;25.85;16.08;;;;;;;;;;5073503;28;20437;-73
2021/12/22 12:36:21;;;;;;;26.85;17.42;;;;;;;;;;5083150;28;20691;-74
2021/12/22 12:38:56;;;;;;;30.70;17.13;;;;;;;;;;5060211;28;20424;-73
2021/12/22 12:41:31;;;;;;;27.10;17.60;;;;;;;;;;5084121;28;20984;-73
2021/12/22 12:44:00;;;;;;;25.70;17.52;;;;;;;;;;5071759;28;20426;-74
2021/12/22 12:46:38;;;;;;;25.85;17.33;;;;;;;;;;5080284;28;20548;-73
2021/12/22 12:49:05;;;;;;;30.65;18.83;;;;;;;;;;5089240;28;20423;-74
2021/12/22 12:51:35;;;;;;;26.70;17.50;;;;;;;;;;5075798;28;20437;-74
2021/12/22 12:54:04;;;;;;;26.90;18.53;;;;;;;;;;5065742;28;20456;-73
2021/12/22 12:56:35;;;;;;;31.50;18.35;;;;;;;;;;5083567;28;20416;-74
2021/12/22 12:59:03;;;;;;;29.60;18.03;;;;;;;;;;5097816;28;20929;-74
2021/12/22 13:01:45;;;;;;;27.25;16.63;;;;;;;;;;5106073;28;20430;-73
2021/12/22 13:04:20;;;;;;;26.95;16.67;;;;;;;;;;5083974;28;20427;-71
2021/12/22 13:06:47;;;;;;;29.02;17.60;;;;;;;;;;5079754;28;20493;-72
2021/12/22 13:09:31;;;;;;;27.30;17.90;;;;;;;;;;5073160;28;20429;-73
2021/12/22 13:12:10;;;;;;;35.63;18.30;;;;;;;;;;5074143;28;20919;-73
2021/12/22 13:17:27;;;;;;;28.52;17.85;;;;;;;;;;5073539;28;20446;-73
2021/12/22 13:19:57;;;;;;;26.58;17.27;;;;;;;;;;5058454;28;20417;-73
2021/12/22 13:22:27;;;;;;;26.50;17.57;;;;;;;;;;5076827;28;20561;-73
2021/12/22 13:25:06;;;;;;;25.63;16.80;;;;;;;;;;5072929;28;20423;-73
2021/12/22 13:27:32;;;;;;;24.92;16.73;;;;;;;;;;5075721;28;20893;-73
2021/12/22 13:30:13;;;;;;;26.20;17.58;;;;;;;;;;5076300;28;20418;-73
2021/12/22 13:32:58;;;;;;;26.77;17.50;;;;;;;;;;5071231;28;20431;-73
2021/12/22 13:35:28;;;;;;;24.63;16.52;;;;;;;;;;5073145;28;20406;-73
2021/12/22 13:37:54;;;;;;;24.53;17.07;;;;;;;;;;5057691;28;21030;-74
2021/12/22 13:40:41;;;;;;;26.13;16.77;;;;;;;;;;5074162;28;20494;-74
2021/12/22 13:43:07;;;;;;;29.25;17.55;;;;;;;;;;5072461;28;20582;-74
2021/12/22 13:45:35;;;;;;;25.15;17.20;;;;;;;;;;5074130;28;20418;-74
2021/12/22 13:48:02;;;;;;;28.95;18.40;;;;;;;;;;5071206;28;20434;-74
2021/12/22 13:50:28;;;;;;;66.90;22.00;;;;;;;;;;5074729;28;20919;-74
2021/12/22 13:52:54;;;;;;;27.70;18.27;;;;;;;;;;5056541;28;20417;-72
2021/12/22 13:55:20;;;;;;;29.08;19.17;;;;;;;;;;5074547;28;20906;-74
2021/12/22 13:57:47;;;;;;;27.93;18.30;;;;;;;;;;5081918;28;20911;-74
2021/12/22 14:00:18;;;;;;;28.33;17.58;;;;;;;;;;5071593;28;20457;-74
2021/12/22 14:02:44;;;;;;;27.65;17.88;;;;;;;;;;5071243;28;20450;-74
2021/12/22 14:05:14;;;;;;;30.58;18.95;;;;;;;;;;5069885;28;20847;-74
2021/12/22 14:07:40;;;;;;;33.33;19.67;;;;;;;;;;5081412;28;20491;-73
2021/12/22 14:10:11;;;;;;;29.08;19.23;;;;;;;;;;5062246;28;20426;-74
2021/12/22 14:12:39;;;;;;;34.97;17.63;;;;;;;;;;5064760;28;20548;-75
2021/12/22 14:15:06;;;;;;;26.07;16.73;;;;;;;;;;5064171;28;20497;-74
2021/12/22 14:17:35;;;;;;;26.52;16.35;;;;;;;;;;5071635;28;20461;-74
2021/12/22 14:20:02;;;;;;;24.67;16.45;;;;;;;;;;5079185;28;20414;-74
2021/12/22 14:22:36;;;;;;;23.67;16.00;;;;;;;;;;5068121;28;20429;-73
2021/12/22 14:25:08;;;;;;;28.37;16.57;;;;;;;;;;5089364;28;20423;-74
2021/12/22 14:27:34;;;;;;;23.83;16.58;;;;;;;;;;5089603;28;20445;-75
2021/12/22 14:30:00;;;;;;;26.57;16.40;;;;;;;;;;5077662;28;20765;-74
2021/12/22 14:32:33;;;;;;;24.63;16.02;;;;;;;;;;5069043;28;20430;-74
2021/12/22 14:35:11;;;;;;;31.77;17.70;;;;;;;;;;5077534;28;20428;-75
2021/12/22 14:37:39;;;;;;;26.50;17.90;;;;;;;;;;5085219;28;20429;-74
2021/12/22 14:40:17;;;;;;;26.98;17.45;;;;;;;;;;5075372;28;20518;-74
2021/12/22 14:42:55;;;;;;;25.10;17.65;;;;;;;;;;5075439;28;20466;-73
2021/12/22 14:45:23;;;;;;;28.88;18.05;;;;;;;;;;5058970;28;20539;-72
2021/12/22 14:48:01;;;;;;;26.05;17.50;;;;;;;;;;5083513;28;20478;-74
2021/12/22 14:50:27;;;;;;;28.15;16.98;;;;;;;;;;5057815;28;20553;-74
2021/12/22 14:52:54;;;;;;;27.48;17.88;;;;;;;;;;5091481;28;20421;-74
2021/12/22 14:55:36;;;;;;;26.60;17.67;;;;;;;;;;5075916;28;20428;-74
2021/12/22 14:58:02;;;;;;;25.90;17.40;;;;;;;;;;5090533;28;20400;-74
2021/12/22 15:00:28;;;;;;;29.25;17.83;;;;;;;;;;5070936;28;20439;-74
2021/12/22 15:02:54;;;;;;;27.17;17.77;;;;;;;;;;5099806;28;20868;-74
2021/12/22 15:05:20;;;;;;;28.13;18.98;;;;;;;;;;5064638;28;20433;-74